ETAR

Ramstein Air Base Airport

Ramstein, Germany
TAF ETAR 201800Z 2018/2200 VRB06KT 9999 FEW130 QNH3012INS BECMG 2109/2110 03009KT 9999 FEW140 QNH3005INS TX27/2115Z TN05/2105Z
Issued Valid From Valid To
Apr-20 @ 18:00 UTC
(36 minutes ago)
Apr-20 @ 18:00 UTC
(36 minutes ago)
Apr-22 @ 00:00 UTC
(-1 days ago)
Apr-20 @ 18:00 to Apr-21 @ 09:00
TAF ETAR 201800Z 2018/2200 VRB06KT 9999 FEW130 QNH3012INS
Wind Visibility Clouds Readings
Variable at 6 knots 10,000+ meters
  • Few at 13,000' AGL
Altimeter 30.12" Hg
Pressure 1020 hPa
Becoming Apr-21 @ 09:00 to Apr-22 @ 00:00
BECMG 2109/2110 03009KT 9999 FEW140 QNH3005INS TX27/2115Z TN05/2105Z
Wind Visibility Clouds Readings
30° at 9 knots 10,000+ meters
  • Few at 14,000' AGL
Altimeter 30.06" Hg
Pressure 1018 hPa
TAF ETAR 201800Z 2018/2200 VRB06KT 9999 FEW130 QNH3012INS BECMG 2109/2110 03009KT 9999 FEW140 QNH3005INS TX27/2115Z TN05/2105Z
Issued Apr-20 @ 18:00 UTC
(36 minutes ago)
Valid From Apr-20 @ 18:00 UTC
(36 minutes ago)
Valid To Apr-22 @ 00:00 UTC
(-1 days ago)
Apr-20 @ 18:00 - Apr-21 @ 09:00
Wind Visibility
Variable at 6 knots 10,000+ meters
Clouds
  • Few at 13,000' AGL
Becoming Apr-21 @ 09:00 - Apr-22 @ 00:00
Wind Visibility
30° at 9 knots 10,000+ meters
Clouds
  • Few at 14,000' AGL